createdAt,value
2023-05-18T00:00:59.611Z,8.6
2023-05-18T00:01:58.994Z,8.5
2023-05-18T00:02:59.430Z,8.5
2023-05-18T00:03:59.168Z,8.6
2023-05-18T00:04:59.004Z,8.5
2023-05-18T00:05:58.348Z,8.4
2023-05-18T00:06:59.446Z,8.5
2023-05-18T00:07:59.006Z,8.4
2023-05-18T00:08:59.656Z,8.4
2023-05-18T00:09:59.736Z,8.3
2023-05-18T00:10:59.010Z,8.3
2023-05-18T00:11:59.580Z,8.3
2023-05-18T00:12:59.028Z,8.2
2023-05-18T00:13:59.005Z,8.3
2023-05-18T00:14:59.022Z,8.3
2023-05-18T00:15:59.046Z,8.3
2023-05-18T00:16:59.004Z,8.3
2023-05-18T00:17:59.041Z,8.3
2023-05-18T00:18:59.147Z,8.3
2023-05-18T00:19:59.498Z,8.2
2023-05-18T00:20:59.275Z,8.2
2023-05-18T00:21:58.992Z,8.2
2023-05-18T00:22:59.524Z,8.2
2023-05-18T00:23:59.004Z,8.2
2023-05-18T00:24:58.999Z,8.2
2023-05-18T00:25:59.148Z,8.3
2023-05-18T00:26:59.024Z,8.2
2023-05-18T00:27:59.720Z,8.2
2023-05-18T00:28:59.151Z,8.1
2023-05-18T00:29:59.708Z,8.1
2023-05-18T00:30:59.016Z,8.1
2023-05-18T00:31:59.071Z,8.2
2023-05-18T00:32:59.124Z,8.2
2023-05-18T00:33:59.025Z,8.1
2023-05-18T00:34:59.023Z,8.1
2023-05-18T00:35:58.077Z,8.1
2023-05-18T00:36:59.717Z,8.1
2023-05-18T00:37:59.012Z,8
2023-05-18T00:38:59.015Z,8.1
2023-05-18T00:39:59.718Z,8.1
2023-05-18T00:40:59.060Z,8
2023-05-18T00:41:59.468Z,8
2023-05-18T00:42:59.025Z,8
2023-05-18T00:43:58.992Z,8
2023-05-18T00:44:59.039Z,8
2023-05-18T00:45:59.574Z,8
2023-05-18T00:46:59.001Z,8
2023-05-18T00:47:59.495Z,8
2023-05-18T00:48:59.018Z,8
2023-05-18T00:49:58.998Z,7.9
2023-05-18T00:50:59.019Z,7.8
2023-05-18T00:51:59.277Z,7.8
2023-05-18T00:52:59.595Z,7.8
2023-05-18T00:54:59.645Z,7.6
2023-05-18T00:55:59.068Z,7.6
2023-05-18T00:56:59.007Z,7.5
2023-05-18T00:57:59.022Z,7.6
2023-05-18T00:58:59.374Z,7.6
2023-05-18T00:59:59.161Z,7.6
2023-05-18T01:00:59.287Z,7.6
2023-05-18T01:01:58.108Z,7.6
2023-05-18T01:02:59.188Z,7.5
2023-05-18T01:03:59.545Z,7.6
2023-05-18T01:04:59.032Z,7.5
2023-05-18T01:05:58.347Z,7.5
2023-05-18T01:06:59.019Z,7.6
2023-05-18T01:07:59.689Z,7.6
2023-05-18T01:08:59.237Z,7.5
2023-05-18T01:09:59.036Z,7.5
2023-05-18T01:10:59.654Z,7.5
2023-05-18T01:12:59.179Z,7.4
2023-05-18T01:13:59.114Z,7.5
2023-05-18T01:14:59.017Z,7.4
2023-05-18T01:15:59.596Z,7.4
2023-05-18T01:16:59.097Z,7.4
2023-05-18T01:17:59.378Z,7.4
2023-05-18T01:18:59.033Z,7.4
2023-05-18T01:19:59.349Z,7.4
2023-05-18T01:20:59.020Z,7.4
2023-05-18T01:21:59.485Z,7.3
2023-05-18T01:22:59.799Z,7.3
2023-05-18T01:23:59.543Z,7.3
2023-05-18T01:24:59.010Z,7.3
2023-05-18T01:25:59.608Z,7.3
2023-05-18T01:26:59.005Z,7.2
2023-05-18T01:27:59.008Z,7.3
2023-05-18T01:28:59.584Z,7.3
2023-05-18T01:29:59.519Z,7.3
2023-05-18T01:30:59.963Z,7.3
2023-05-18T01:31:59.006Z,7.2
2023-05-18T01:32:59.199Z,7.3
2023-05-18T01:33:58.997Z,7.2
2023-05-18T01:34:59.017Z,7.2
2023-05-18T01:35:58.095Z,7.2
2023-05-18T01:36:59.082Z,7.2
2023-05-18T01:37:59.004Z,7.1
2023-05-18T01:38:59.801Z,7
2023-05-18T01:39:59.007Z,7.1
2023-05-18T01:40:59.244Z,7.1
2023-05-18T01:41:59.197Z,7.2
2023-05-18T01:42:59.984Z,7.2
2023-05-18T01:43:59.456Z,7.1
2023-05-18T01:44:59.290Z,7.1
2023-05-18T01:45:59.038Z,7.1
2023-05-18T01:46:59.644Z,7.1
2023-05-18T01:48:59.024Z,7
2023-05-18T01:49:59.015Z,7.1
2023-05-18T01:50:59.280Z,7
2023-05-18T01:51:59.012Z,7.1
2023-05-18T01:52:59.204Z,7
2023-05-18T01:54:59.137Z,7
2023-05-18T01:55:58.997Z,7
2023-05-18T01:56:59.562Z,7
2023-05-18T01:57:59.508Z,6.9
2023-05-18T01:58:59.014Z,6.9
2023-05-18T01:59:59.125Z,6.9
2023-05-18T02:00:58.994Z,6.9
2023-05-18T02:02:00.232Z,6.9
2023-05-18T02:02:59.150Z,6.8
2023-05-18T02:03:59.138Z,6.9
2023-05-18T02:04:59.209Z,6.6
2023-05-18T02:05:58.713Z,6.7
2023-05-18T02:06:59.540Z,6.8
2023-05-18T02:07:59.005Z,6.8
2023-05-18T02:08:59.521Z,6.8
2023-05-18T02:09:59.014Z,6.8
2023-05-18T02:10:58.989Z,6.8
2023-05-18T02:11:59.110Z,6.9
2023-05-18T02:12:59.283Z,6.8
2023-05-18T02:13:59.012Z,6.8
2023-05-18T02:14:58.381Z,6.8
2023-05-18T02:15:59.662Z,6.8
2023-05-18T02:16:59.002Z,6.7
2023-05-18T02:17:59.334Z,6.7
2023-05-18T02:18:59.446Z,6.6
2023-05-18T02:19:59.422Z,6.7
2023-05-18T02:20:58.999Z,6.7
2023-05-18T02:21:58.989Z,6.7
2023-05-18T02:22:58.995Z,6.8
2023-05-18T02:23:59.006Z,6.8
2023-05-18T02:24:59.486Z,6.8
2023-05-18T02:25:59.154Z,6.8
2023-05-18T02:26:59.062Z,6.8
2023-05-18T02:27:59.016Z,6.7
2023-05-18T02:28:59.904Z,6.7
2023-05-18T02:29:58.993Z,6.7
2023-05-18T02:30:58.998Z,6.6
2023-05-18T02:31:59.134Z,6.6
2023-05-18T02:32:59.087Z,6.4
2023-05-18T02:33:59.002Z,6.5
2023-05-18T02:34:59.026Z,6.5
2023-05-18T02:35:58.310Z,6.6
2023-05-18T02:36:59.025Z,6.6
2023-05-18T02:37:58.076Z,6.5
2023-05-18T02:38:59.095Z,6.6
2023-05-18T02:39:59.002Z,6.6
2023-05-18T02:40:59.014Z,6.6
2023-05-18T02:41:58.998Z,6.6
2023-05-18T02:42:58.997Z,6.6
2023-05-18T02:43:58.988Z,6.7
2023-05-18T02:44:59.002Z,6.7
2023-05-18T02:45:59.704Z,6.7
2023-05-18T02:46:59.007Z,6.7
2023-05-18T02:47:59.036Z,6.7
2023-05-18T02:48:58.991Z,6.7
2023-05-18T02:49:59.254Z,6.7
2023-05-18T02:50:59.045Z,6.7
2023-05-18T02:51:59.273Z,6.6
2023-05-18T02:52:58.991Z,6.6
2023-05-18T02:53:59.017Z,6.5
2023-05-18T02:54:59.098Z,6.5
2023-05-18T02:55:59.549Z,6.5
2023-05-18T02:56:59.428Z,6.5
2023-05-18T02:57:59.007Z,6.4
2023-05-18T02:58:59.579Z,6.3
2023-05-18T03:00:59.248Z,6.3
2023-05-18T03:01:59.054Z,6.3
2023-05-18T03:03:59.126Z,6.2
2023-05-18T03:04:58.996Z,6.1
2023-05-18T03:05:58.533Z,6.1
2023-05-18T03:06:59.000Z,6.1
2023-05-18T03:07:59.013Z,6.1
2023-05-18T03:08:58.988Z,6.1
2023-05-18T03:09:59.951Z,6.1
2023-05-18T03:10:59.696Z,6.1
2023-05-18T03:12:59.020Z,6.1
2023-05-18T03:13:59.016Z,6.1
2023-05-18T03:14:59.477Z,6
2023-05-18T03:15:59.012Z,6
2023-05-18T03:16:59.103Z,6.1
2023-05-18T03:17:59.053Z,6.1
2023-05-18T03:18:59.872Z,6.1
2023-05-18T03:19:59.016Z,6.1
2023-05-18T03:20:59.018Z,6.1
2023-05-18T03:21:59.013Z,6.1
2023-05-18T03:22:59.418Z,6.1
2023-05-18T03:23:59.995Z,6
2023-05-18T03:24:58.997Z,6.1
2023-05-18T03:25:59.017Z,6.1
2023-05-18T03:26:58.996Z,6.1
2023-05-18T03:27:59.814Z,6.1
2023-05-18T03:28:59.007Z,6
2023-05-18T03:29:59.264Z,5.9
2023-05-18T03:30:59.035Z,5.9
2023-05-18T03:31:59.349Z,5.9
2023-05-18T03:32:59.055Z,5.9
2023-05-18T03:33:59.517Z,5.9
2023-05-18T03:34:59.026Z,5.9
2023-05-18T03:35:58.671Z,5.9
2023-05-18T03:36:59.856Z,5.9
2023-05-18T03:37:59.018Z,5.9
2023-05-18T03:38:59.007Z,5.8
2023-05-18T03:39:58.998Z,5.7
2023-05-18T03:40:59.417Z,5.7
2023-05-18T03:42:59.897Z,5.8
2023-05-18T03:43:59.252Z,5.8
2023-05-18T03:44:59.633Z,5.8
2023-05-18T03:45:59.057Z,5.8
2023-05-18T03:46:59.026Z,5.8
2023-05-18T03:47:59.046Z,5.7
2023-05-18T03:48:59.137Z,5.7
2023-05-18T03:49:59.005Z,5.8
2023-05-18T03:50:59.244Z,5.7
2023-05-18T03:51:59.007Z,5.6
2023-05-18T03:52:59.654Z,5.5
2023-05-18T03:53:58.992Z,5.6
2023-05-18T03:54:59.776Z,5.6
2023-05-18T03:55:59.792Z,5.6
2023-05-18T03:56:59.012Z,5.6
2023-05-18T03:57:58.996Z,5.6
2023-05-18T03:58:59.699Z,5.6
2023-05-18T03:59:59.661Z,5.6
2023-05-18T04:00:59.178Z,5.6
2023-05-18T04:01:59.772Z,5.5
2023-05-18T04:02:59.062Z,5.5
2023-05-18T04:03:59.687Z,5.5
2023-05-18T04:04:59.360Z,5.4
2023-05-18T04:05:58.296Z,5.5
2023-05-18T04:06:59.005Z,5.5
2023-05-18T04:07:59.011Z,5.4
2023-05-18T04:08:59.011Z,5.5
2023-05-18T04:09:59.467Z,5.5
2023-05-18T04:10:58.987Z,5.5
2023-05-18T04:11:59.006Z,5.5
2023-05-18T04:12:59.566Z,5.5
2023-05-18T04:13:59.605Z,5.5
2023-05-18T04:14:59.010Z,5.5
2023-05-18T04:15:59.166Z,5.5
2023-05-18T04:16:58.997Z,5.5
2023-05-18T04:17:59.061Z,5.5
2023-05-18T04:18:59.035Z,5.5
2023-05-18T04:19:59.403Z,5.5
2023-05-18T04:20:59.033Z,5.5
2023-05-18T04:21:59.011Z,5.6
2023-05-18T04:22:59.842Z,5.5
2023-05-18T04:23:59.007Z,5.5
2023-05-18T04:24:59.838Z,5.5
2023-05-18T04:25:59.000Z,5.5
2023-05-18T04:26:59.014Z,5.6
2023-05-18T04:27:59.000Z,5.6
2023-05-18T04:28:58.998Z,5.6
2023-05-18T04:29:59.019Z,5.6
2023-05-18T04:30:59.006Z,5.6
2023-05-18T04:31:59.044Z,5.6
2023-05-18T04:32:59.278Z,5.6
2023-05-18T04:33:58.993Z,5.5
2023-05-18T04:34:59.009Z,5.5
2023-05-18T04:35:58.412Z,5.5
2023-05-18T04:36:59.338Z,5.4
2023-05-18T04:37:59.085Z,5.4
2023-05-18T04:38:59.012Z,5.4
2023-05-18T04:39:59.003Z,5.4
2023-05-18T04:40:59.007Z,5.5
2023-05-18T04:41:58.996Z,5.5
2023-05-18T04:42:59.012Z,5.6
2023-05-18T04:43:59.002Z,5.6
2023-05-18T04:44:59.015Z,5.7
2023-05-18T04:45:59.033Z,5.8
2023-05-18T04:46:59.423Z,5.8
2023-05-18T04:47:59.363Z,5.9
2023-05-18T04:48:59.012Z,6
2023-05-18T04:49:59.012Z,5.9
2023-05-18T04:50:59.289Z,6
2023-05-18T04:51:59.000Z,6.1
2023-05-18T04:52:58.989Z,6.1
2023-05-18T04:53:59.505Z,6.2
2023-05-18T04:54:59.273Z,6.2
2023-05-18T04:55:58.989Z,6.3
2023-05-18T04:56:59.031Z,6.4
2023-05-18T04:57:59.106Z,6.5
2023-05-18T04:58:59.132Z,6.6
2023-05-18T04:59:58.983Z,6.6
2023-05-18T05:00:59.054Z,6.7
2023-05-18T05:02:59.589Z,7
2023-05-18T05:03:59.770Z,7.1
2023-05-18T05:04:59.034Z,7
2023-05-18T05:05:58.513Z,7
2023-05-18T05:06:59.000Z,7
2023-05-18T05:07:59.209Z,7.1
2023-05-18T05:08:59.004Z,7.2
2023-05-18T05:09:59.018Z,7.3
2023-05-18T05:10:59.005Z,7.4
2023-05-18T05:11:59.431Z,7.4
2023-05-18T05:12:59.198Z,7.4
2023-05-18T05:13:59.147Z,7.4
2023-05-18T05:14:59.069Z,7.5
2023-05-18T05:15:59.686Z,7.6
2023-05-18T05:16:59.005Z,7.6
2023-05-18T05:17:59.595Z,7.7
2023-05-18T05:18:59.052Z,7.7
2023-05-18T05:19:59.011Z,7.8
2023-05-18T05:20:59.218Z,7.8
2023-05-18T05:21:58.984Z,7.9
2023-05-18T05:22:59.000Z,8
2023-05-18T05:23:59.014Z,8.1
2023-05-18T05:24:59.009Z,8.1
2023-05-18T05:25:59.002Z,8.1
2023-05-18T05:26:59.102Z,8.1
2023-05-18T05:27:59.007Z,8.1
2023-05-18T05:28:59.151Z,8.2
2023-05-18T05:29:59.010Z,8.3
2023-05-18T05:30:58.982Z,8.3
2023-05-18T05:31:59.102Z,8.5
2023-05-18T05:32:59.391Z,8.5
2023-05-18T05:33:59.618Z,8.6
2023-05-18T05:34:58.993Z,8.6
2023-05-18T05:35:58.089Z,8.7
2023-05-18T05:36:59.410Z,8.8
2023-05-18T05:37:59.448Z,8.9
2023-05-18T05:38:58.992Z,9
2023-05-18T05:39:59.300Z,9
2023-05-18T05:40:59.019Z,9
2023-05-18T05:41:59.070Z,9
2023-05-18T05:42:59.762Z,9.1
2023-05-18T05:43:59.141Z,9.4
2023-05-18T05:44:59.001Z,9.6
2023-05-18T05:45:59.029Z,9.8
2023-05-18T05:46:59.772Z,9.8
2023-05-18T05:47:59.061Z,9.9
2023-05-18T05:48:59.409Z,9.9
2023-05-18T05:49:59.491Z,9.8
2023-05-18T05:50:59.004Z,9.9
2023-05-18T05:51:59.001Z,9.8
2023-05-18T05:52:58.067Z,9.8
2023-05-18T05:53:58.993Z,9.8
2023-05-18T05:54:59.621Z,9.8
2023-05-18T05:55:59.567Z,9.8
2023-05-18T05:56:59.174Z,9.8
2023-05-18T05:57:59.150Z,9.9
2023-05-18T05:58:59.943Z,9.8
2023-05-18T05:59:59.664Z,9.9
2023-05-18T06:00:58.989Z,9.8
2023-05-18T06:01:59.706Z,9.9
2023-05-18T06:02:59.109Z,9.9
2023-05-18T06:03:59.178Z,10
2023-05-18T06:04:59.522Z,10
2023-05-18T06:05:58.136Z,10
2023-05-18T06:06:58.997Z,10
2023-05-18T06:07:58.997Z,10.1
2023-05-18T06:08:59.510Z,10.2
2023-05-18T06:09:58.985Z,10.2
2023-05-18T06:10:59.489Z,10.2
2023-05-18T06:11:59.031Z,10.3
2023-05-18T06:12:59.018Z,10.3
2023-05-18T06:13:58.989Z,10.2
2023-05-18T06:14:59.004Z,10.3
2023-05-18T06:15:59.013Z,10.3
2023-05-18T06:16:59.144Z,10.3
2023-05-18T06:17:59.980Z,10.3
2023-05-18T06:18:59.063Z,10.3
2023-05-18T06:19:59.615Z,10.4
2023-05-18T06:20:59.805Z,10.4
2023-05-18T06:21:59.005Z,10.5
2023-05-18T06:22:59.005Z,10.6
2023-05-18T06:23:59.435Z,10.6
2023-05-18T06:25:59.014Z,10.7
2023-05-18T06:26:59.430Z,10.8
2023-05-18T06:27:58.985Z,10.8
2023-05-18T06:28:59.070Z,10.8
2023-05-18T06:29:59.691Z,10.8
2023-05-18T06:30:59.031Z,10.8
2023-05-18T06:31:59.022Z,10.8
2023-05-18T06:32:59.027Z,10.8
2023-05-18T06:33:59.005Z,10.8
2023-05-18T06:34:59.008Z,11
2023-05-18T06:35:58.074Z,11.2
2023-05-18T06:36:58.995Z,11.5
2023-05-18T06:37:58.995Z,11.6
2023-05-18T06:38:59.012Z,11.6
2023-05-18T06:39:59.005Z,11.7
2023-05-18T06:40:58.991Z,11.7
2023-05-18T06:41:59.349Z,11.6
2023-05-18T06:42:59.578Z,11.6
2023-05-18T06:43:59.470Z,11.6
2023-05-18T06:44:59.750Z,11.7
2023-05-18T06:47:59.050Z,11.8
2023-05-18T06:48:58.995Z,12
2023-05-18T06:49:59.018Z,12.2
2023-05-18T06:50:59.018Z,12.2
2023-05-18T06:51:59.006Z,12.1
2023-05-18T06:53:00.009Z,11.7
2023-05-18T06:53:59.011Z,11.8
2023-05-18T06:54:59.003Z,11.9
2023-05-18T06:55:58.999Z,12
2023-05-18T06:57:59.760Z,11.9
2023-05-18T06:59:00.458Z,12
2023-05-18T06:59:59.010Z,12.2
2023-05-18T07:00:59.134Z,12.1
2023-05-18T07:01:59.109Z,12
2023-05-18T07:02:59.151Z,12.2
2023-05-18T07:03:59.883Z,12.2
2023-05-18T07:04:59.321Z,12.2
2023-05-18T07:05:58.184Z,12.3
2023-05-18T07:06:59.307Z,12.4
2023-05-18T07:07:59.409Z,12.3
2023-05-18T07:08:59.102Z,12.3
2023-05-18T07:09:59.204Z,12.4
2023-05-18T07:10:59.280Z,12.4
2023-05-18T07:11:59.613Z,12.4
2023-05-18T07:12:59.047Z,12.3
2023-05-18T07:13:59.040Z,12.4
2023-05-18T07:14:58.461Z,12.6
2023-05-18T07:15:59.155Z,12.6
2023-05-18T07:16:59.031Z,12.7
2023-05-18T07:17:59.189Z,12.5
2023-05-18T07:18:59.122Z,12.6
2023-05-18T07:19:59.053Z,12.7
2023-05-18T07:20:59.021Z,12.7
2023-05-18T07:21:59.025Z,12.8
2023-05-18T07:22:59.048Z,12.7
2023-05-18T07:23:59.030Z,12.7
2023-05-18T07:25:59.001Z,12.8
2023-05-18T07:27:01.020Z,12.8
2023-05-18T07:27:59.028Z,13
2023-05-18T07:28:59.404Z,13.1
2023-05-18T07:29:58.993Z,13
2023-05-18T07:30:59.008Z,12.8
2023-05-18T07:31:59.962Z,12.8
2023-05-18T07:32:59.055Z,12.8
2023-05-18T07:33:59.005Z,13.1
2023-05-18T07:34:59.043Z,13.2
2023-05-18T07:35:58.076Z,13.2
2023-05-18T07:36:59.213Z,13.3
2023-05-18T07:37:59.030Z,13.4
2023-05-18T07:38:59.082Z,13.5
2023-05-18T07:39:59.014Z,13.2
2023-05-18T07:40:59.002Z,13.5
2023-05-18T07:41:59.037Z,13.5
2023-05-18T07:42:59.018Z,13.3
2023-05-18T07:43:59.009Z,13.4
2023-05-18T07:44:59.731Z,13.4
2023-05-18T07:45:59.581Z,13.3
2023-05-18T07:46:59.332Z,13.6
2023-05-18T07:47:59.907Z,13.5
2023-05-18T07:48:59.035Z,13.6
2023-05-18T07:49:59.025Z,13.6
2023-05-18T07:50:59.002Z,13.8
2023-05-18T07:51:59.023Z,13.7
2023-05-18T07:52:59.011Z,13.5
2023-05-18T07:53:59.189Z,13.5
2023-05-18T07:54:59.029Z,13.5
2023-05-18T07:55:59.060Z,13.6
2023-05-18T07:57:00.864Z,13.8
2023-05-18T07:57:58.994Z,13.9
2023-05-18T07:58:59.737Z,14.2
2023-05-18T07:59:59.488Z,14.3
2023-05-18T08:00:59.073Z,14.3
2023-05-18T08:01:59.163Z,14.3
2023-05-18T08:02:59.110Z,14.5
2023-05-18T08:03:59.091Z,14.6
2023-05-18T08:05:58.112Z,14.4
2023-05-18T08:06:59.038Z,14.2
2023-05-18T08:07:59.028Z,14.2
2023-05-18T08:08:59.026Z,14.3
2023-05-18T08:09:59.013Z,14.3
2023-05-18T08:10:59.031Z,14.2
2023-05-18T08:11:59.714Z,14.3
2023-05-18T08:12:59.003Z,14.3
2023-05-18T08:13:59.309Z,14.5
2023-05-18T08:14:59.055Z,14.4
2023-05-18T08:16:10.559Z,14.2
2023-05-18T08:16:59.893Z,14.2
2023-05-18T08:17:59.136Z,13.9
2023-05-18T08:18:59.049Z,14.1
2023-05-18T08:19:59.221Z,14
2023-05-18T08:20:59.016Z,14.1
2023-05-18T08:21:59.023Z,14.3
2023-05-18T08:22:59.150Z,14.5
2023-05-18T08:23:59.018Z,14.6
2023-05-18T08:24:59.024Z,14.7
2023-05-18T08:25:59.018Z,14.7
2023-05-18T08:26:59.171Z,14.9
2023-05-18T08:27:59.011Z,15
2023-05-18T08:29:59.099Z,15.1
2023-05-18T08:30:59.025Z,15.2
2023-05-18T08:31:59.036Z,15.4
2023-05-18T08:32:59.052Z,15.5
2023-05-18T08:33:59.013Z,15.5
2023-05-18T08:34:59.015Z,15.4
2023-05-18T08:35:58.073Z,15.4
2023-05-18T08:36:59.705Z,15.6
2023-05-18T08:37:59.662Z,15.4
2023-05-18T08:38:59.024Z,15.3
2023-05-18T08:39:59.008Z,15.3
2023-05-18T08:40:59.467Z,15.3
2023-05-18T08:41:59.376Z,15.2
2023-05-18T08:42:59.679Z,14.8
2023-05-18T08:43:59.009Z,14.8
2023-05-18T08:44:59.030Z,14.8
2023-05-18T08:45:59.020Z,15
2023-05-18T08:46:59.063Z,15.2
2023-05-18T08:48:59.594Z,15.2
2023-05-18T08:49:59.054Z,15.3
2023-05-18T08:50:59.012Z,15.5
2023-05-18T08:51:59.022Z,15.5
2023-05-18T08:52:59.028Z,15.7
2023-05-18T08:53:59.063Z,15.8
2023-05-18T08:54:59.589Z,16
2023-05-18T08:55:59.338Z,15.9
2023-05-18T08:56:59.023Z,15.8
2023-05-18T08:57:59.810Z,15.8
2023-05-18T08:58:59.094Z,16
2023-05-18T08:59:59.038Z,16
2023-05-18T09:00:59.032Z,16
2023-05-18T09:01:59.427Z,15.8
2023-05-18T09:02:59.110Z,15.8
2023-05-18T09:03:59.764Z,15.8
2023-05-18T09:04:59.093Z,15.6
2023-05-18T09:05:58.515Z,15.6
2023-05-18T09:06:59.023Z,15.1
2023-05-18T09:08:00.018Z,14.9
2023-05-18T09:08:58.103Z,14.8
2023-05-18T09:09:59.055Z,14.8
2023-05-18T09:10:59.026Z,14.9
2023-05-18T09:11:59.043Z,14.8
2023-05-18T09:12:59.036Z,14.9
2023-05-18T09:13:59.033Z,15.1
2023-05-18T09:14:59.052Z,15.1
2023-05-18T09:15:59.932Z,15.2
2023-05-18T09:16:59.019Z,15
2023-05-18T09:17:59.264Z,15.2
2023-05-18T09:18:59.611Z,15.3
2023-05-18T09:19:59.024Z,15.1
2023-05-18T09:20:59.006Z,15
2023-05-18T09:21:59.026Z,15.1
2023-05-18T09:22:59.657Z,15.1
2023-05-18T09:24:59.039Z,15.3
2023-05-18T09:25:59.327Z,15.2
2023-05-18T09:26:59.175Z,15
2023-05-18T09:27:59.037Z,15.1
2023-05-18T09:28:59.031Z,15.4
2023-05-18T09:29:59.578Z,15.5
2023-05-18T09:30:59.029Z,15.4
2023-05-18T09:31:59.700Z,15.6
2023-05-18T09:32:59.134Z,15.8
2023-05-18T09:33:59.282Z,15.9
2023-05-18T09:34:59.023Z,15.8
2023-05-18T09:35:58.082Z,15.6
2023-05-18T09:36:59.037Z,15.7
2023-05-18T09:37:59.031Z,15.5
2023-05-18T09:38:59.170Z,15.8
2023-05-18T09:39:59.107Z,16
2023-05-18T09:40:59.989Z,16.4
2023-05-18T09:41:59.748Z,16
2023-05-18T09:42:59.741Z,16
2023-05-18T09:43:59.036Z,16
2023-05-18T09:44:58.841Z,16.2
2023-05-18T09:45:59.031Z,16.6
2023-05-18T09:46:59.058Z,16.4
2023-05-18T09:47:59.096Z,16.3
2023-05-18T09:48:59.011Z,16.1
2023-05-18T09:49:59.018Z,15.9
2023-05-18T09:50:59.403Z,15.8
2023-05-18T09:51:59.263Z,15.7
2023-05-18T09:52:59.053Z,15.8
2023-05-18T09:53:59.087Z,16
2023-05-18T09:54:59.537Z,15.8
2023-05-18T09:55:59.038Z,15.7
2023-05-18T09:57:10.312Z,15.7
2023-05-18T09:57:59.050Z,15.6
2023-05-18T09:58:59.122Z,15.5
2023-05-18T09:59:59.416Z,15.5
2023-05-18T10:00:59.689Z,15.5
2023-05-18T10:01:59.026Z,15.9
2023-05-18T10:02:59.125Z,16.3
2023-05-18T10:03:59.079Z,16.2
2023-05-18T10:04:59.814Z,16.5
2023-05-18T10:06:59.064Z,16.7
2023-05-18T10:07:59.039Z,16.8
2023-05-18T10:08:59.854Z,16.7
2023-05-18T10:09:59.027Z,16.7
2023-05-18T10:10:59.448Z,16.8
2023-05-18T10:11:59.029Z,16.7
2023-05-18T10:12:59.324Z,16.8
2023-05-18T10:13:59.310Z,17
2023-05-18T10:14:59.042Z,16.9
2023-05-18T10:15:59.057Z,17
2023-05-18T10:17:14.285Z,16.8
2023-05-18T10:17:59.980Z,16.5
2023-05-18T10:18:59.108Z,16.4
2023-05-18T10:19:59.028Z,16.3
2023-05-18T10:21:00.253Z,16.5
2023-05-18T10:21:59.037Z,16.5
2023-05-18T10:22:59.043Z,16.5
2023-05-18T10:23:59.055Z,16.3
2023-05-18T10:24:59.052Z,16.2
2023-05-18T10:25:59.231Z,16.3
2023-05-18T10:26:59.044Z,16.4
2023-05-18T10:27:59.043Z,16.4
2023-05-18T10:28:59.249Z,16.5
2023-05-18T10:29:59.064Z,16.6
2023-05-18T10:30:59.609Z,16.7
2023-05-18T10:32:59.109Z,16.6
2023-05-18T10:33:59.515Z,16.4
2023-05-18T10:34:59.573Z,16.1
2023-05-18T10:35:58.379Z,15.7
2023-05-18T10:36:59.026Z,15.7
2023-05-18T10:37:59.036Z,15.8
2023-05-18T10:38:59.865Z,15.8
2023-05-18T10:39:59.856Z,15.9
2023-05-18T10:40:59.451Z,15.9
2023-05-18T10:41:59.051Z,16.1
2023-05-18T10:42:59.927Z,16.2
2023-05-18T10:43:59.499Z,16.1
2023-05-18T10:44:59.030Z,16
2023-05-18T10:45:59.123Z,16
2023-05-18T10:46:59.233Z,16.1
2023-05-18T10:48:59.401Z,16.3
2023-05-18T10:49:59.393Z,16
2023-05-18T10:50:59.075Z,16
2023-05-18T10:51:59.312Z,16
2023-05-18T10:52:59.533Z,15.8
2023-05-18T10:53:59.601Z,15.9
2023-05-18T10:54:59.078Z,16
2023-05-18T10:55:59.054Z,16.5
2023-05-18T10:56:59.033Z,16.9
2023-05-18T10:57:59.341Z,17.4
2023-05-18T10:58:59.740Z,17.8
2023-05-18T10:59:59.124Z,18
2023-05-18T11:00:59.547Z,18
2023-05-18T11:01:59.647Z,17.7
2023-05-18T11:02:59.064Z,17.7
2023-05-18T11:03:59.897Z,17.6
2023-05-18T11:04:59.745Z,17.2
2023-05-18T11:05:58.128Z,17.4
2023-05-18T11:06:59.517Z,17.7
2023-05-18T11:07:59.755Z,17.8
2023-05-18T11:08:59.047Z,17.5
2023-05-18T11:09:59.132Z,17.5
2023-05-18T11:10:59.106Z,17.4
2023-05-18T11:11:59.427Z,17.2
2023-05-18T11:12:59.820Z,17.2
2023-05-18T11:13:59.223Z,17.1
2023-05-18T11:14:59.573Z,17.1
2023-05-18T11:15:59.102Z,17.3
2023-05-18T11:17:59.112Z,17.3
2023-05-18T11:18:59.057Z,17.3
2023-05-18T11:19:59.043Z,17.2
2023-05-18T11:20:59.689Z,17.2
2023-05-18T11:21:59.435Z,17.1
2023-05-18T11:22:59.054Z,17.1
2023-05-18T11:23:59.061Z,17.2
2023-05-18T11:24:59.062Z,17.1
2023-05-18T11:25:59.052Z,17.3
2023-05-18T11:26:59.371Z,17.5
2023-05-18T11:27:59.063Z,17.4
2023-05-18T11:28:59.042Z,17.6
2023-05-18T11:30:11.684Z,17.8
2023-05-18T11:30:59.408Z,17.6
2023-05-18T11:32:01.179Z,17.4
2023-05-18T11:32:59.181Z,17.3
2023-05-18T11:33:59.056Z,17.3
2023-05-18T11:34:59.335Z,17.5
2023-05-18T11:35:58.152Z,17.4
2023-05-18T11:36:59.384Z,17.6
2023-05-18T11:37:59.636Z,17.7
2023-05-18T11:38:59.069Z,17.5
2023-05-18T11:40:01.105Z,17.3
2023-05-18T11:40:59.082Z,17.4
2023-05-18T11:42:59.520Z,17.3
2023-05-18T11:43:59.066Z,17.2
2023-05-18T11:44:59.371Z,17.2
2023-05-18T11:45:59.583Z,17.2
2023-05-18T11:46:59.057Z,17.3
2023-05-18T11:48:59.068Z,17.4
2023-05-18T11:49:59.160Z,17.5
2023-05-18T11:50:59.068Z,17.3
2023-05-18T11:51:59.246Z,17.1
2023-05-18T11:52:59.788Z,17.1
2023-05-18T11:53:59.050Z,17
2023-05-18T11:54:59.092Z,17
2023-05-18T11:55:59.186Z,17.1
2023-05-18T11:56:59.416Z,17.1
2023-05-18T11:57:59.054Z,17.1
2023-05-18T11:59:59.072Z,17.3
2023-05-18T12:00:59.144Z,17.5
2023-05-18T12:01:59.082Z,17.7
2023-05-18T12:02:59.569Z,17.7
2023-05-18T12:03:59.150Z,17.7
2023-05-18T12:04:59.797Z,17.7
2023-05-18T12:05:58.823Z,17.8
2023-05-18T12:06:59.788Z,17.9
2023-05-18T12:07:59.076Z,17.9
2023-05-18T12:08:59.336Z,17.8
2023-05-18T12:09:59.848Z,17.7
2023-05-18T12:10:59.062Z,18
2023-05-18T12:11:59.778Z,18.3
2023-05-18T12:12:59.792Z,18.5
2023-05-18T12:13:59.828Z,18.5
2023-05-18T12:14:58.146Z,18.6
2023-05-18T12:15:59.299Z,18.4
2023-05-18T12:16:59.530Z,18.1
2023-05-18T12:17:59.166Z,18.1
2023-05-18T12:18:59.107Z,18.2
2023-05-18T12:19:59.080Z,18.1
2023-05-18T12:20:59.741Z,18.2
2023-05-18T12:21:59.872Z,18.2
2023-05-18T12:22:59.508Z,18.2
2023-05-18T12:24:59.150Z,18.7
2023-05-18T12:25:59.780Z,19
2023-05-18T12:26:59.095Z,19.1
2023-05-18T12:27:59.064Z,19
2023-05-18T12:28:59.249Z,19
2023-05-18T12:29:59.051Z,19
2023-05-18T12:30:59.164Z,19
2023-05-18T12:31:59.063Z,18.9
2023-05-18T12:32:59.096Z,18.8
2023-05-18T12:33:59.705Z,19
2023-05-18T12:34:59.156Z,19
2023-05-18T12:35:58.565Z,18.9
2023-05-18T12:36:59.092Z,19
2023-05-18T12:38:00.104Z,18.8
2023-05-18T12:38:59.070Z,18.8
2023-05-18T12:39:59.795Z,18.8
2023-05-18T12:40:59.064Z,18.8
2023-05-18T12:42:59.072Z,19
2023-05-18T12:43:59.450Z,18.9
2023-05-18T12:44:59.440Z,18.7
2023-05-18T12:45:59.580Z,18.8
2023-05-18T12:46:59.800Z,19
2023-05-18T12:47:59.156Z,19.3
2023-05-18T12:48:59.120Z,19.5
2023-05-18T12:49:59.066Z,19.5
2023-05-18T12:50:59.423Z,19.4
2023-05-18T12:51:59.062Z,19.5
2023-05-18T12:52:59.067Z,19.4
2023-05-18T12:53:59.065Z,19.3
2023-05-18T12:54:59.071Z,19.4
2023-05-18T12:55:59.495Z,19.4
2023-05-18T12:57:01.457Z,19
2023-05-18T12:57:59.092Z,18.8
2023-05-18T12:58:59.085Z,18.4
2023-05-18T12:59:59.113Z,18.2
2023-05-18T13:00:59.084Z,18.1
2023-05-18T13:01:59.701Z,18.2
2023-05-18T13:02:59.626Z,18.1
2023-05-18T13:03:59.406Z,17.9
2023-05-18T13:04:59.061Z,17.7
2023-05-18T13:05:59.071Z,17.7
2023-05-18T13:06:59.313Z,17.7
2023-05-18T13:07:59.756Z,17.9
2023-05-18T13:08:59.080Z,18.2
2023-05-18T13:09:59.072Z,18.3
2023-05-18T13:11:12.044Z,18.3
2023-05-18T13:12:06.973Z,18.6
2023-05-18T13:12:59.971Z,18.6
2023-05-18T13:13:59.140Z,18.7
2023-05-18T13:14:59.151Z,18.7
2023-05-18T13:15:59.368Z,18.6
2023-05-18T13:16:59.104Z,18.4
2023-05-18T13:17:59.225Z,18.3
2023-05-18T13:18:59.769Z,18.1
2023-05-18T13:20:00.046Z,18
2023-05-18T13:21:00.010Z,18.2
2023-05-18T13:21:59.102Z,18.3
2023-05-18T13:22:59.064Z,18.3
2023-05-18T13:23:59.069Z,18.7
2023-05-18T13:24:59.093Z,18.5
2023-05-18T13:25:59.208Z,18.3
2023-05-18T13:26:59.077Z,18.1
2023-05-18T13:27:59.099Z,18.1
2023-05-18T13:28:59.655Z,18
2023-05-18T13:29:59.092Z,18.1
2023-05-18T13:30:59.079Z,18.3
2023-05-18T13:31:59.135Z,18.4
2023-05-18T13:32:59.467Z,18.3
2023-05-18T13:33:59.212Z,18.5
2023-05-18T13:34:59.113Z,18.5
2023-05-18T13:36:59.502Z,18.3
2023-05-18T13:37:59.070Z,18.4
2023-05-18T13:38:59.091Z,18.3
2023-05-18T13:39:59.230Z,18.4
2023-05-18T13:40:59.087Z,18.5
2023-05-18T13:41:59.225Z,18.6
2023-05-18T13:42:59.737Z,18.7
2023-05-18T13:43:59.088Z,18.8
2023-05-18T13:44:59.073Z,18.7
2023-05-18T13:45:59.095Z,18.7
2023-05-18T13:46:59.150Z,18.6
2023-05-18T13:47:59.119Z,18.6
2023-05-18T13:48:59.873Z,18.7
2023-05-18T13:49:59.076Z,18.9
2023-05-18T13:50:59.167Z,19.1
2023-05-18T13:51:59.096Z,19.1
2023-05-18T13:52:59.135Z,19.2
2023-05-18T13:53:59.547Z,19.2
2023-05-18T13:54:59.084Z,19.3
2023-05-18T13:55:59.074Z,19.4
2023-05-18T13:56:59.813Z,19.6
2023-05-18T13:57:59.113Z,19.5
2023-05-18T13:58:59.723Z,19.5
2023-05-18T13:59:59.289Z,19.6
2023-05-18T14:00:59.124Z,19.4
2023-05-18T14:01:59.121Z,19.2
2023-05-18T14:02:59.507Z,19.2
2023-05-18T14:03:59.084Z,19.2